• Join FlightAware (Why Join?)
  • Login
  • US Flag 
02:35AM EDT


 

Airport Tracker/Info


-or-


 

Live Flight TrackerFlight Track Log ✈ EJA831 ✈ 21-Jun-2013 ✈ CYBC - KHPN

Flight Track Log - Related Links

Times and Time Zones

All times are in EDT time to prevent confusion due to time zone crossing. See the EJA831 flight status page for this flight to view local times or setup timezone preferences in your user account.

Time Position Orientation Groundspeed Altitude Reporting Facility
EDT Latitude Longitude Course Direction KTS MPH feet Rate Location/Type
04:26PM 49.0167 -68.3000 214° Southwest 270 311 6,400  Level Moncton Center
04:27PM 48.9667 -68.3500 213° Southwest 280 322 10,900 3,780 Climbing Moncton Center
04:28PM 48.8833 -68.4500 218° Southwest 310 357 14,000 2,940 Climbing Moncton Center
04:29PM 48.8167 -68.5167 213° Southwest 350 403 16,800 2,640 Climbing Moncton Center
04:30PM 48.7333 -68.6167 218° Southwest 360 414 19,300 2,400 Climbing Moncton Center
04:31PM 48.6880 -68.6574 217° Southwest  Level FlightAware Approximate
04:31PM 48.6333 -68.7000 209° Southwest 370 426 21,600  Level Moncton Center
04:32PM 48.6081 -68.7254 214° Southwest  Level FlightAware Approximate
04:32PM 48.5500 -68.8000 218° Southwest 390 449 23,600  Level Moncton Center
04:33PM 48.4500 -68.9000 214° Southwest 400 460 25,300 2,460 Climbing Moncton Center
04:34PM 48.3833 -68.9667 214° Southwest 390 449 28,600 3,120 Climbing Moncton Center
04:35PM 48.3000 -69.0500 214° Southwest 370 426 31,600 2,640 Climbing Moncton Center
04:36PM 48.2000 -69.1500 214° Southwest 360 414 33,900 1,980 Climbing Moncton Center
04:37PM 48.1167 -69.2333 214° Southwest 370 426 35,600 1,500 Climbing Moncton Center
04:38PM 48.0333 -69.3000 208° Southwest 380 437 37,000 1,800 Climbing Moncton Center
04:39PM 47.9500 -69.4000 219° Southwest 370 426 39,200 1,680 Climbing Moncton Center
04:40PM 47.8500 -69.4833 209° Southwest 360 414 40,400 1,200 Climbing Moncton Center
04:41PM 47.7833 -69.5500 214° Southwest 360 414 41,600 960 Climbing Moncton Center
04:42PM 47.7000 -69.6500 219° Southwest 360 414 42,400 660 Climbing Moncton Center
04:43PM 47.6167 -69.7333 214° Southwest 360 414 43,000 300 Climbing Moncton Center
04:44PM 47.5167 -69.8000 204° Southwest 370 426 43,000  Level Moncton Center
04:45PM 47.4333 -69.9000 219° Southwest 390 449 43,000  Level Moncton Center
04:46PM 47.3333 -69.9833 209° Southwest 400 460 43,000  Level Moncton Center
04:47PM 47.2167 -70.0667 206° Southwest 410 472 43,000  Level Moncton Center
04:48PM 47.1333 -70.1500 214° Southwest 410 472 43,000  Level Moncton Center
04:49PM 47.0333 -70.2500 214° Southwest 410 472 43,000  Level Moncton Center
04:50PM 46.9500 -70.3333 214° Southwest 410 472 43,000  Level Moncton Center
04:51PM 46.8333 -70.4167 206° Southwest 410 472 43,000  Level Moncton Center
04:52PM 46.7500 -70.5000 214° Southwest 410 472 43,000  Level Moncton Center
04:53PM 46.6500 -70.6000 214° Southwest 410 472 43,000  Level Moncton Center
04:54PM 46.5333 -70.7000 211° Southwest 410 472 43,000  Level Moncton Center
04:55PM 46.4500 -70.7667 209° Southwest 410 472 43,000  Level Moncton Center
04:56PM 46.3500 -70.8667 215° Southwest 410 472 43,000  Level Moncton Center
04:57PM 46.2500 -70.9667 215° Southwest 410 472 43,000  Level Moncton Center
04:58PM 46.1500 -71.0500 210° Southwest 410 472 43,000  Level Moncton Center
04:59PM 46.0667 -71.1333 215° Southwest 410 472 43,000  Level Moncton Center
05:00PM 45.9500 -71.1833 197° South 410 472 43,000  Level Moncton Center
05:02PM 45.8684 -71.2587 213° Southwest  Level FlightAware Approximate
05:02PM 45.7833 -71.3667 211° Southwest 400 460 43,000  Level Moncton Center
05:03PM 45.6667 -71.4667 211° Southwest 400 460 43,000  Level Moncton Center
05:04PM 45.5833 -71.5333 209° Southwest 400 460 43,000  Level Moncton Center
05:05PM 45.4853 -71.6142 210° Southwest 410 472 43,000  Level Boston Center
05:06PM 45.3858 -71.6956 210° Southwest 410 472 43,000  Level Boston Center
05:07PM 45.2906 -71.7764 211° Southwest 410 472 43,000  Level Boston Center
05:08PM 45.1931 -71.8569 210° Southwest 410 472 43,000  Level Boston Center
05:09PM 45.2907 -71.7700 211° Southwest  Level FlightAware Approximate
05:09PM 45.0978 -71.9372 211° Southwest 410 472 43,000  Level Boston Center
05:10PM 45.0000 -72.0175 210° Southwest 410 472 43,000  Level Boston Center
05:11PM 44.8983 -72.1003 210° Southwest 415 478 43,000  Level Boston Center
05:12PM 44.7797 -72.1975 210° Southwest 420 483 43,000  Level Boston Center
05:13PM 44.6800 -72.2767 209° Southwest 420 483 43,000  Level Boston Center
05:14PM 44.5800 -72.3614 211° Southwest 425 489 43,000  Level Boston Center
05:15PM 44.4781 -72.4458 211° Southwest 425 489 43,000  Level Boston Center
05:16PM 44.3739 -72.5244 208° Southwest 425 489 43,000  Level Boston Center
05:17PM 44.2736 -72.6083 211° Southwest 425 489 43,000  Level Boston Center
05:18PM 44.1714 -72.6889 209° Southwest 425 489 43,000  Level Boston Center
05:19PM 44.0692 -72.7725 210° Southwest 425 489 43,000  Level Boston Center
05:20PM 43.9856 -72.8383 210° Southwest 425 489 43,000  Level Boston Center
05:21PM 43.8622 -72.9383 210° Southwest 425 489 43,000 -1,440 Level Boston Center
05:22PM 43.7433 -72.9661 190° South 420 483 40,200 -3,300 Descending Boston Center
05:23PM 43.6308 -72.9450 172° South 438 504 36,400 -3,780 Descending Boston Center
05:24PM 43.4936 -72.9267 174° South 461 531 32,700 -3,600 Descending Boston Center
05:25PM 43.3686 -72.9114 175° South 461 531 29,300 -3,780 Descending Boston Center
05:26PM 43.2478 -72.8933 174° South 456 525 25,200 -2,700 Descending Boston Center
05:27PM 43.1639 -72.9725 215° Southwest 379 436 24,000 -780 Descending Boston Center
05:28PM 43.1072 -73.0914 237° Southwest 359 413 23,700 -900 Descending Boston Center
05:29PM 43.0336 -73.1842 223° Southwest 359 413 22,200 -900 Descending Boston Center
05:30PM 42.9353 -73.2539 207° Southwest 384 442 22,000 -600 Descending Boston Center
05:31PM 42.8389 -73.3206 207° Southwest 390 449 21,100 -1,260 Descending Boston Center
05:32PM 42.7403 -73.3872 206° Southwest 390 449 19,500 -1,560 Descending Boston Center
05:33PM 42.6336 -73.4503 204° Southwest 390 449 18,000 -1,500 Descending Boston Center
05:34PM 42.5436 -73.4856 196° South 379 436 16,500 -1,680 Descending Boston Center
05:35PM 42.4347 -73.5258 195° South 374 430 14,700 -1,620 Descending Boston Center
05:36PM 42.3553 -73.5583 197° South 347 399 13,300 -1,380 Descending Boston Center
05:37PM 42.2675 -73.5958 198° South 341 392 12,000 -660 Descending Boston Center
05:38PM 42.1858 -73.6281 196° South 323 372 12,000  Level Boston Center
05:39PM 42.0917 -73.6656 196° South 334 384 12,000  Level Boston Center
05:40PM 41.9994 -73.6972 194° South 345 397 12,000  Level Boston Center
05:41PM 41.9075 -73.7344 197° South 332 382 12,000  Level Boston Center
05:42PM 41.8342 -73.7636 197° South 314 361 12,000 -960 Level Boston Center
05:43PM 41.7767 -73.8542 230° Southwest 298 343 10,100 -1,800 Descending Boston Center
05:44PM 41.7319 -73.9283 231° Southwest 293 337 8,400 -1,800 Descending Boston Center
05:45PM 41.6567 -73.9572 196° South 257 296 6,500 -1,440 Descending Boston Center
05:46PM 41.6000 -73.9500 175° South 273 314 6,000 -300 Descending New York TRACON
05:47PM 41.5333 -73.9333 169° South 260 299 6,000 -60 Level New York TRACON
05:48PM 41.4500 -73.9167 171° South 272 313 5,900 -540 Descending New York TRACON
05:49PM 41.3833 -73.9000 169° South 263 303 5,000 -900 Descending New York TRACON
05:50PM 41.3167 -73.8833 169° South 227 261 4,100 -960 Descending New York TRACON
05:51PM 41.2667 -73.8500 153° Southeast 206 237 3,100 -1,020 Descending New York TRACON
05:52PM 41.2167 -73.8167 153° Southeast 207 238 2,100 -600 Descending New York TRACON
05:53PM 41.1667 -73.7833 153° Southeast 193 222 2,000 -300 Descending New York TRACON
05:54PM 41.1333 -73.7500 143° Southeast 166 191 1,500 -540 Descending New York TRACON
05:55PM 41.1000 -73.7333 159° South 117 135 1,000 -600 Descending New York TRACON